Time;durP1;ratioP1;P1;durP2;ratioP2;P2;SDS_P1;SDS_P2;PMS_P1;PMS_P2;Temp;Humidity;BMP_temperature;BMP_pressure;BME280_temperature;BME280_humidity;BME280_pressure;Samples;Min_cycle;Max_cycle;Signal;HPM_P1;HPM_P2
2023/04/13 00:01:53;;;;;;;;;;;;;;;26.04;39.91;96168.16;619827;228;66764;-60
2023/04/13 00:04:21;;;;;;;;;;;;;;;26.04;41.28;96159.30;620234;228;63792;-60
2023/04/13 00:06:49;;;;;;;;;;;;;;;26.02;39.27;96153.45;619655;229;66668;-60
2023/04/13 00:09:17;;;;;;;;;;;;;;;26.01;39.08;96151.87;620443;228;64666;-60
2023/04/13 00:11:48;;;;;;;;;;;;;;;26.01;39.86;96151.87;620525;228;65117;-59
2023/04/13 00:14:17;;;;;;;;;;;;;;;26.00;40.50;96158.36;619508;229;67247;-59
2023/04/13 00:16:46;;;;;;;;;;;;;;;25.99;39.71;96160.27;619429;229;67294;-59
2023/04/13 00:19:13;;;;;;;;;;;;;;;25.99;39.33;96162.95;621181;228;62917;-60
2023/04/13 00:21:41;;;;;;;;;;;;;;;25.97;40.10;96157.09;620343;228;64504;-59
2023/04/13 00:24:08;;;;;;;;;;;;;;;25.97;41.08;96161.70;619882;228;64723;-59
2023/04/13 00:26:36;;;;;;;;;;;;;;;25.96;37.97;96165.52;619796;229;62747;-59
2023/04/13 00:29:03;;;;;;;;;;;;;;;25.95;38.78;96153.97;620168;229;64675;-59
2023/04/13 00:31:31;;;;;;;;;;;;;;;25.94;39.35;96157.75;620048;229;64671;-60
2023/04/13 00:33:58;;;;;;;;;;;;;;;25.94;39.09;96156.97;619817;229;62544;-59
2023/04/13 00:36:28;;;;;;;;;;;;;;;25.93;40.10;96156.18;619801;228;48701;-60
2023/04/13 00:38:57;;;;;;;;;;;;;;;25.91;38.65;96147.63;620002;229;64472;-60
2023/04/13 00:41:25;;;;;;;;;;;;;;;25.91;40.16;96142.25;620471;228;64917;-60
2023/04/13 00:43:53;;;;;;;;;;;;;;;25.90;38.08;96156.83;619517;229;65061;-61
2023/04/13 00:46:24;;;;;;;;;;;;;;;25.89;41.01;96147.16;619454;229;64814;-61
2023/04/13 00:48:51;;;;;;;;;;;;;;;25.88;40.92;96154.45;620062;228;62742;-61
2023/04/13 00:51:20;;;;;;;;;;;;;;;25.88;40.76;96165.22;619416;228;64985;-60
2023/04/13 00:53:50;;;;;;;;;;;;;;;25.86;40.56;96156.70;621810;228;63546;-60
2023/04/13 00:56:21;;;;;;;;;;;;;;;25.87;42.09;96162.87;619554;228;65157;-60
2023/04/13 00:58:47;;;;;;;;;;;;;;;25.84;38.58;96152.75;619579;229;67242;-61
2023/04/13 01:01:14;;;;;;;;;;;;;;;25.84;39.98;96164.30;620146;228;68067;-61
2023/04/13 01:03:42;;;;;;;;;;;;;;;25.81;39.61;96154.16;621225;228;63016;-60
2023/04/13 01:06:17;;;;;;;;;;;;;;;25.82;41.27;96166.48;619896;228;67191;-60
2023/04/13 01:08:46;;;;;;;;;;;;;;;25.82;39.63;96161.11;619824;229;65117;-60
2023/04/13 01:11:17;;;;;;;;;;;;;;;25.81;40.10;96164.11;620523;228;62904;-59
2023/04/13 01:13:51;;;;;;;;;;;;;;;25.79;38.98;96167.14;619864;229;72598;-59
2023/04/13 01:16:20;;;;;;;;;;;;;;;25.79;41.10;96161.75;619797;228;66890;-59
2023/04/13 01:18:49;;;;;;;;;;;;;;;25.78;41.34;96162.06;619969;228;63144;-59
2023/04/13 01:21:19;;;;;;;;;;;;;;;25.76;39.98;96167.78;619417;228;67477;-59
2023/04/13 01:23:51;;;;;;;;;;;;;;;25.76;41.61;96159.71;620050;228;65621;-60
2023/04/13 01:26:21;;;;;;;;;;;;;;;25.75;39.81;96160.80;620458;228;65141;-59
2023/04/13 01:28:50;;;;;;;;;;;;;;;25.75;38.83;96160.02;620527;228;67210;-61
2023/04/13 01:31:18;;;;;;;;;;;;;;;25.74;40.92;96161.14;619933;228;65699;-61
2023/04/13 01:33:46;;;;;;;;;;;;;;;25.72;39.40;96166.83;619813;228;65293;-61
2023/04/13 01:36:14;;;;;;;;;;;;;;;25.72;39.11;96166.05;620613;228;65035;-60
2023/04/13 01:38:42;;;;;;;;;;;;;;;25.70;38.09;96161.00;619449;228;66855;-60
2023/04/13 01:41:11;;;;;;;;;;;;;;;25.71;40.25;96159.88;619929;228;65669;-59
2023/04/13 01:43:40;;;;;;;;;;;;;;;25.69;40.64;96160.19;619989;228;45615;-59
2023/04/13 01:46:10;;;;;;;;;;;;;;;25.68;39.03;96168.60;619849;228;64509;-59
2023/04/13 01:48:49;;;;;;;;;;;;;;;25.68;41.40;96169.39;619793;228;43867;-59
2023/04/13 01:51:23;;;;;;;;;;;;;;;25.67;39.98;96161.63;615413;228;49396;-59
2023/04/13 01:53:53;;;;;;;;;;;;;;;25.65;40.56;96167.34;619809;228;43986;-60
2023/04/13 01:56:25;;;;;;;;;;;;;;;25.64;41.15;96167.66;613011;229;66581;-60
2023/04/13 01:58:56;;;;;;;;;;;;;;;25.64;40.23;96165.75;618504;229;44128;-59
2023/04/13 02:01:22;;;;;;;;;;;;;;;25.64;41.61;96170.34;619571;228;64908;-59
2023/04/13 02:03:51;;;;;;;;;;;;;;;25.62;39.37;96162.61;619428;229;65410;-59
2023/04/13 02:06:19;;;;;;;;;;;;;;;25.62;41.13;96167.98;619822;228;67025;-59
2023/04/13 02:08:47;;;;;;;;;;;;;;;25.61;39.21;96162.91;619697;229;64796;-59
2023/04/13 02:11:16;;;;;;;;;;;;;;;25.60;41.55;96166.73;619523;229;44445;-59
2023/04/13 02:13:44;;;;;;;;;;;;;;;25.59;41.21;96162.44;619488;228;67115;-59
2023/04/13 02:16:14;;;;;;;;;;;;;;;25.58;36.58;96166.25;619339;229;44190;-59
2023/04/13 02:18:42;;;;;;;;;;;;;;;25.58;38.83;96166.25;620539;228;62774;-59
2023/04/13 02:21:10;;;;;;;;;;;;;;;25.57;42.43;96170.06;620043;228;67153;-60
2023/04/13 02:23:39;;;;;;;;;;;;;;;25.58;39.87;96168.94;620256;228;67032;-59
2023/04/13 02:26:11;;;;;;;;;;;;;;;25.56;39.54;96168.47;620220;228;65053;-60
2023/04/13 02:28:40;;;;;;;;;;;;;;;25.54;39.26;96168.80;621471;228;65037;-60
2023/04/13 02:31:08;;;;;;;;;;;;;;;25.55;42.12;96173.06;621481;228;66901;-59
2023/04/13 02:33:36;;;;;;;;;;;;;;;25.54;40.24;96170.70;621435;228;64895;-60
2023/04/13 02:36:04;;;;;;;;;;;;;;;25.54;41.32;96176.09;621394;228;64646;-59
2023/04/13 02:38:36;;;;;;;;;;;;;;;25.53;40.30;96174.48;621349;228;44769;-59
2023/04/13 02:41:05;;;;;;;;;;;;;;;25.51;37.81;96176.70;621337;228;42309;-60
2023/04/13 02:43:33;;;;;;;;;;;;;;;25.51;38.79;96171.33;621408;228;65254;-60
2023/04/13 02:46:01;;;;;;;;;;;;;;;25.50;38.80;96167.06;620202;228;67392;-60
2023/04/13 02:48:30;;;;;;;;;;;;;;;25.49;40.97;96177.05;620248;228;42362;-59
2023/04/13 02:50:58;;;;;;;;;;;;;;;25.49;41.12;96181.64;619606;228;67766;-59
2023/04/13 02:53:27;;;;;;;;;;;;;;;25.46;40.67;96175.78;619397;229;43893;-59
2023/04/13 02:55:57;;;;;;;;;;;;;;;25.46;40.55;96180.38;619385;229;43102;-60
2023/04/13 02:58:24;;;;;;;;;;;;;;;25.45;40.36;96179.59;619380;229;67065;-59
2023/04/13 03:00:53;;;;;;;;;;;;;;;25.46;41.71;96183.06;619742;228;44017;-59
2023/04/13 03:03:22;;;;;;;;;;;;;;;25.44;40.76;96186.06;620258;228;65743;-60
2023/04/13 03:05:50;;;;;;;;;;;;;;;25.43;41.34;96187.18;619457;228;68022;-59
2023/04/13 03:08:20;;;;;;;;;;;;;;;25.41;39.25;96184.02;619834;228;43369;-59
2023/04/13 03:10:55;;;;;;;;;;;;;;;25.42;41.32;96187.48;619837;228;42463;-61
2023/04/13 03:13:23;;;;;;;;;;;;;;;25.40;39.29;96193.20;620005;229;64553;-61
2023/04/13 03:15:52;;;;;;;;;;;;;;;25.40;40.81;96193.20;621014;228;44298;-61
2023/04/13 03:18:20;;;;;;;;;;;;;;;25.39;39.72;96191.61;619555;229;66068;-61
2023/04/13 03:20:48;;;;;;;;;;;;;;;25.38;40.39;96187.34;619524;228;67358;-61
2023/04/13 03:23:16;;;;;;;;;;;;;;;25.36;37.81;96186.87;619983;229;66713;-61
2023/04/13 03:25:45;;;;;;;;;;;;;;;25.35;41.21;96193.37;619561;228;65629;-61
2023/04/13 03:28:12;;;;;;;;;;;;;;;25.36;40.32;96191.46;620153;228;67818;-60
2023/04/13 03:30:42;;;;;;;;;;;;;;;25.36;41.69;96194.16;619920;229;44687;-61
2023/04/13 03:33:09;;;;;;;;;;;;;;;25.34;38.97;96199.84;619572;229;63048;-61
2023/04/13 03:35:38;;;;;;;;;;;;;;;25.34;40.43;96199.84;620072;228;67884;-61
2023/04/13 03:38:07;;;;;;;;;;;;;;;25.33;40.25;96203.64;620145;228;43778;-62
2023/04/13 03:40:39;;;;;;;;;;;;;;;25.32;39.13;96210.14;620991;228;64912;-61
2023/04/13 03:43:06;;;;;;;;;;;;;;;25.31;39.11;96213.92;620262;228;67102;-61
2023/04/13 03:45:35;;;;;;;;;;;;;;;25.31;39.97;96213.92;619397;228;43279;-61
2023/04/13 03:48:05;;;;;;;;;;;;;;;25.30;39.30;96209.66;619504;229;42594;-61
2023/04/13 03:50:32;;;;;;;;;;;;;;;25.30;41.10;96214.26;619378;229;64695;-61
2023/04/13 03:53:01;;;;;;;;;;;;;;;25.29;39.74;96209.97;619481;228;67479;-61
2023/04/13 03:55:29;;;;;;;;;;;;;;;25.29;40.35;96205.41;619502;229;65003;-61
2023/04/13 03:57:57;;;;;;;;;;;;;;;25.27;37.16;96201.45;619434;229;67430;-61
2023/04/13 04:00:27;;;;;;;;;;;;;;;25.25;38.97;96205.23;619607;229;43273;-61
2023/04/13 04:02:59;;;;;;;;;;;;;;;25.26;40.52;96216.77;618689;229;46332;-61
2023/04/13 04:05:28;;;;;;;;;;;;;;;25.24;40.30;96214.41;620921;228;44289;-61
2023/04/13 04:07:57;;;;;;;;;;;;;;;25.24;41.91;96216.32;619452;228;43747;-61
2023/04/13 04:10:26;;;;;;;;;;;;;;;25.22;39.46;96218.53;619562;228;65472;-62
2023/04/13 04:12:54;;;;;;;;;;;;;;;25.21;38.21;96211.58;619589;229;67396;-61
2023/04/13 04:15:21;;;;;;;;;;;;;;;25.19;38.76;96211.89;619470;229;64727;-63
2023/04/13 04:17:50;;;;;;;;;;;;;;;25.20;39.79;96209.98;619596;228;43936;-63
2023/04/13 04:20:18;;;;;;;;;;;;;;;25.19;38.39;96219.17;621009;228;66853;-63
2023/04/13 04:22:46;;;;;;;;;;;;;;;25.19;41.00;96222.64;619279;229;64280;-62
2023/04/13 04:25:20;;;;;;;;;;;;;;;25.18;40.72;96212.19;618947;229;65074;-63
2023/04/13 04:27:49;;;;;;;;;;;;;;;25.18;39.25;96220.26;618929;229;48418;-63
2023/04/13 04:30:20;;;;;;;;;;;;;;;25.17;42.21;96216.78;618956;229;64904;-62
2023/04/13 04:32:51;;;;;;;;;;;;;;;25.17;39.28;96221.37;618949;229;64969;-63
2023/04/13 04:35:37;;;;;;;;;;;;;;;25.17;40.09;96218.69;618948;229;64330;-63
2023/04/13 04:37:54;;;;;;;;;;;;;;;25.16;41.64;96220.59;618969;228;65495;-61
2023/04/13 04:40:22;;;;;;;;;;;;;;;25.16;39.56;96225.97;619467;229;62557;-61
2023/04/13 04:42:50;;;;;;;;;;;;;;;25.16;41.61;96219.80;619522;229;67120;-61
2023/04/13 04:45:19;;;;;;;;;;;;;;;25.15;38.93;96216.30;619615;228;46703;-61
2023/04/13 04:47:49;;;;;;;;;;;;;;;25.16;41.79;96220.59;619666;228;62987;-60
2023/04/13 04:50:18;;;;;;;;;;;;;;;25.15;39.88;96216.30;621059;228;49304;-61
2023/04/13 04:52:47;;;;;;;;;;;;;;;25.15;39.89;96215.52;616446;228;43857;-61
2023/04/13 04:55:17;;;;;;;;;;;;;;;25.15;41.73;96220.89;621376;228;44658;-61
2023/04/13 04:57:45;;;;;;;;;;;;;;;25.15;39.38;96224.36;621374;228;67713;-61
2023/04/13 05:00:14;;;;;;;;;;;;;;;25.15;41.71;96218.20;620837;228;64532;-61
2023/04/13 05:02:43;;;;;;;;;;;;;;;25.15;40.54;96220.89;621322;228;65090;-61
2023/04/13 05:05:11;;;;;;;;;;;;;;;25.14;40.84;96220.08;616204;228;67262;-61
2023/04/13 05:07:39;;;;;;;;;;;;;;;25.14;41.91;96221.98;621389;228;66907;-60
2023/04/13 05:10:08;;;;;;;;;;;;;;;25.15;42.19;96215.52;621490;228;65071;-62
2023/04/13 05:12:37;;;;;;;;;;;;;;;25.13;40.31;96212.34;616425;228;68696;-62
2023/04/13 05:15:05;;;;;;;;;;;;;;;25.14;41.85;96213.91;621393;228;67132;-62
2023/04/13 05:17:35;;;;;;;;;;;;;;;25.13;41.23;96218.51;621412;228;63676;-62
2023/04/13 05:20:05;;;;;;;;;;;;;;;25.13;42.58;96215.81;621397;228;67202;-60
2023/04/13 05:22:34;;;;;;;;;;;;;;;25.13;42.30;96217.72;620976;228;48063;-62
2023/04/13 05:25:03;;;;;;;;;;;;;;;25.13;40.46;96218.51;621459;228;42474;-61
2023/04/13 05:27:31;;;;;;;;;;;;;;;25.12;40.17;96216.91;621456;227;64818;-61
2023/04/13 05:30:00;;;;;;;;;;;;;;;25.12;40.84;96218.81;621258;228;48608;-62
2023/04/13 05:32:28;;;;;;;;;;;;;;;25.11;38.91;96209.96;621421;228;65729;-63
2023/04/13 05:34:56;;;;;;;;;;;;;;;25.13;40.89;96213.13;621474;228;67717;-63
2023/04/13 05:37:26;;;;;;;;;;;;;;;25.12;41.12;96213.44;621483;228;51993;-63
2023/04/13 05:39:53;;;;;;;;;;;;;;;25.12;39.90;96210.75;621257;228;65645;-62
2023/04/13 05:42:23;;;;;;;;;;;;;;;25.12;42.26;96216.12;621298;228;45595;-61
2023/04/13 05:44:51;;;;;;;;;;;;;;;25.11;41.91;96217.24;620677;228;64968;-62
2023/04/13 05:47:20;;;;;;;;;;;;;;;25.11;39.62;96222.63;621298;228;65051;-61
2023/04/13 05:49:48;;;;;;;;;;;;;;;25.11;42.24;96219.93;621430;228;67667;-62
2023/04/13 05:52:17;;;;;;;;;;;;;;;25.10;42.02;96218.33;621390;228;45284;-64
2023/04/13 05:54:46;;;;;;;;;;;;;;;25.08;40.48;96220.56;621365;228;43194;-63
2023/04/13 05:57:14;;;;;;;;;;;;;;;25.06;38.45;96218.18;620160;228;67469;-62
2023/04/13 05:59:43;;;;;;;;;;;;;;;25.06;40.08;96218.18;617251;230;46569;-60
2023/04/13 06:02:11;;;;;;;;;;;;;;;25.05;40.51;96219.30;617344;230;63600;-61
2023/04/13 06:04:40;;;;;;;;;;;;;;;25.05;40.13;96223.89;617286;230;66709;-62
2023/04/13 06:07:08;;;;;;;;;;;;;;;25.05;40.97;96223.89;617230;230;67049;-61
2023/04/13 06:09:36;;;;;;;;;;;;;;;25.03;40.42;96222.29;617185;230;65035;-61
2023/04/13 06:12:06;;;;;;;;;;;;;;;25.02;39.02;96228.78;617220;230;44350;-62
2023/04/13 06:14:34;;;;;;;;;;;;;;;25.01;37.95;96229.88;617115;230;65045;-62
2023/04/13 06:17:04;;;;;;;;;;;;;;;25.01;39.02;96221.02;617998;225;64922;-62
2023/04/13 06:19:32;;;;;;;;;;;;;;;25.01;37.64;96219.13;611723;230;64527;-61
2023/04/13 06:21:59;;;;;;;;;;;;;;;25.00;37.05;96217.55;612001;225;64819;-61
2023/04/13 06:24:27;;;;;;;;;;;;;;;25.00;39.13;96217.55;616320;225;62397;-61
2023/04/13 06:26:55;;;;;;;;;;;;;;;25.00;37.64;96217.55;608477;231;69050;-62
2023/04/13 06:29:23;;;;;;;;;;;;;;;25.01;38.44;96219.13;611605;231;67053;-61
2023/04/13 06:31:53;;;;;;;;;;;;;;;25.00;39.86;96217.55;612025;230;41560;-62
2023/04/13 06:34:20;;;;;;;;;;;;;;;25.01;40.63;96213.75;613329;230;64905;-61
2023/04/13 06:36:48;;;;;;;;;;;;;;;25.01;38.16;96207.58;613093;231;67026;-61
2023/04/13 06:39:16;;;;;;;;;;;;;;;25.01;38.94;96207.58;614946;227;62582;-61
2023/04/13 06:41:46;;;;;;;;;;;;;;;25.01;41.89;96213.75;610743;229;48261;-61
2023/04/13 06:44:25;;;;;;;;;;;;;;;25.01;40.11;96202.99;607852;233;44292;-61
2023/04/13 06:46:55;;;;;;;;;;;;;;;25.02;39.56;96203.81;608734;232;43653;-62
2023/04/13 06:49:23;;;;;;;;;;;;;;;25.02;39.08;96193.05;601255;233;65056;-62
2023/04/13 06:51:50;;;;;;;;;;;;;;;25.02;41.12;96193.84;606877;233;67751;-61
2023/04/13 06:54:19;;;;;;;;;;;;;;;25.03;37.17;96192.72;609262;231;65161;-63
2023/04/13 06:56:48;;;;;;;;;;;;;;;25.00;37.80;96192.57;610495;228;45299;-62
2023/04/13 06:59:16;;;;;;;;;;;;;;;25.02;39.89;96199.22;608168;231;67142;-62
2023/04/13 07:01:44;;;;;;;;;;;;;;;25.05;42.02;96197.02;611619;230;64835;-62
2023/04/13 07:04:11;;;;;;;;;;;;;;;25.04;38.49;96196.20;607668;231;65070;-59
2023/04/13 07:06:40;;;;;;;;;;;;;;;25.08;41.00;96193.69;607464;231;43630;-60
2023/04/13 07:09:08;;;;;;;;;;;;;;;25.07;40.61;96190.18;603425;232;64839;-61
2023/04/13 07:11:35;;;;;;;;;;;;;;;25.08;43.98;96185.62;607956;232;68326;-61
2023/04/13 07:14:03;;;;;;;;;;;;;;;25.07;41.88;96174.05;598905;231;66535;-62
2023/04/13 07:16:31;;;;;;;;;;;;;;;25.07;39.78;96173.27;606093;231;62802;-60
2023/04/13 07:19:03;;;;;;;;;;;;;;;25.07;40.18;96175.95;609079;231;64713;-59
2023/04/13 07:21:30;;;;;;;;;;;;;;;25.08;43.87;96175.65;605401;231;67679;-60
2023/04/13 07:24:02;;;;;;;;;;;;;;;25.09;41.89;96171.06;606573;231;46176;-59
2023/04/13 07:26:30;;;;;;;;;;;;;;;25.09;42.04;96177.22;609777;231;67606;-59
2023/04/13 07:28:58;;;;;;;;;;;;;;;25.11;41.67;96168.84;605341;231;66944;-58
2023/04/13 07:31:27;;;;;;;;;;;;;;;25.11;41.70;96168.84;612187;231;42509;-59
2023/04/13 07:33:55;;;;;;;;;;;;;;;25.11;43.75;96164.26;609654;231;64245;-59
2023/04/13 07:36:25;;;;;;;;;;;;;;;25.11;43.85;96153.50;605757;232;44623;-60
2023/04/13 07:38:54;;;;;;;;;;;;;;;25.11;43.56;96150.81;606440;233;43657;-61
2023/04/13 07:41:23;;;;;;;;;;;;;;;25.12;38.58;96155.08;610192;232;67527;-59
2023/04/13 07:43:52;;;;;;;;;;;;;;;25.13;42.91;96150.51;604903;233;43889;-60
2023/04/13 07:46:25;;;;;;;;;;;;;;;25.14;39.58;96141.33;609198;232;65701;-60
2023/04/13 07:48:52;;;;;;;;;;;;;;;25.16;43.55;96139.14;611269;232;64879;-60
2023/04/13 07:51:21;;;;;;;;;;;;;;;25.16;43.96;96144.52;611356;230;44284;-61
2023/04/13 07:53:55;;;;;;;;;;;;;;;25.17;37.84;96146.09;606647;233;65108;-61
2023/04/13 07:56:20;;;;;;;;;;;;;;;25.19;41.50;96141.19;611632;230;67439;-60
2023/04/13 07:58:49;;;;;;;;;;;;;;;25.19;42.65;96144.66;614702;230;64867;-59
2023/04/13 08:01:17;;;;;;;;;;;;;;;25.18;43.59;96140.41;610881;230;66119;-60
2023/04/13 08:03:44;;;;;;;;;;;;;;;25.20;44.03;96140.07;614937;230;64863;-60
2023/04/13 08:06:14;;;;;;;;;;;;;;;25.22;40.39;96137.86;612108;228;45723;-60
2023/04/13 08:08:42;;;;;;;;;;;;;;;25.24;40.19;96132.96;615276;228;63637;-60
2023/04/13 08:11:10;;;;;;;;;;;;;;;25.25;42.32;96135.31;613506;230;67224;-59
2023/04/13 08:13:39;;;;;;;;;;;;;;;25.27;40.64;96140.39;607473;231;64154;-58
2023/04/13 08:16:08;;;;;;;;;;;;;;;25.27;41.31;96134.23;617920;227;62936;-58
2023/04/13 08:18:36;;;;;;;;;;;;;;;25.28;39.59;96131.20;623382;227;64534;-58
2023/04/13 08:21:11;;;;;;;;;;;;;;;25.29;40.23;96127.42;618959;227;45172;-59
2023/04/13 08:23:41;;;;;;;;;;;;;;;25.31;40.73;96124.39;612492;225;65925;-58
2023/04/13 08:26:10;;;;;;;;;;;;;;;25.32;38.59;96132.16;617973;228;66838;-58
2023/04/13 08:28:39;;;;;;;;;;;;;;;25.33;39.15;96135.63;617280;228;64941;-58
2023/04/13 08:31:07;;;;;;;;;;;;;;;25.32;41.86;96132.16;616997;229;62959;-58
2023/04/13 08:33:35;;;;;;;;;;;;;;;25.33;41.95;96124.87;617885;228;67389;-58
2023/04/13 08:36:03;;;;;;;;;;;;;;;25.33;43.99;96127.55;615065;229;66729;-58
2023/04/13 08:38:32;;;;;;;;;;;;;;;25.33;39.14;96127.55;617871;228;65873;-60
2023/04/13 08:41:01;;;;;;;;;;;;;;;25.34;39.02;96129.13;617589;228;65456;-58
2023/04/13 08:43:36;;;;;;;;;;;;;;;25.36;41.67;96133.08;615939;229;67620;-58
2023/04/13 08:46:06;;;;;;;;;;;;;;;25.35;37.76;96134.20;618580;228;62571;-60
2023/04/13 08:48:34;;;;;;;;;;;;;;;25.38;41.91;96136.24;618570;228;66850;-60
2023/04/13 08:51:04;;;;;;;;;;;;;;;25.39;40.28;96126.27;615823;229;67278;-59
2023/04/13 08:53:32;;;;;;;;;;;;;;;25.39;42.68;96108.22;619032;226;65453;-60
2023/04/13 08:56:01;;;;;;;;;;;;;;;25.40;42.23;96111.70;623638;227;67951;-60
2023/04/13 08:58:32;;;;;;;;;;;;;;;25.41;35.87;96122.15;622343;227;66884;-59
2023/04/13 09:01:00;;;;;;;;;;;;;;;25.42;42.37;96115.65;618131;229;65177;-60
2023/04/13 09:03:32;;;;;;;;;;;;;;;25.43;40.94;96113.77;613744;229;67507;-59
2023/04/13 09:06:03;;;;;;;;;;;;;;;25.44;42.62;96113.44;615466;229;67230;-61
2023/04/13 09:08:34;;;;;;;;;;;;;;;25.43;42.73;96113.77;614817;229;65608;-61
2023/04/13 09:11:03;;;;;;;;;;;;;;;25.44;41.29;96113.44;614815;228;68733;-59
2023/04/13 09:13:31;;;;;;;;;;;;;;;25.45;40.61;96116.91;617112;228;64702;-60
2023/04/13 09:16:01;;;;;;;;;;;;;;;25.46;38.26;96107.75;616666;228;65230;-59
2023/04/13 09:18:33;;;;;;;;;;;;;;;25.49;41.06;96111.70;614054;231;48054;-60
2023/04/13 09:21:02;;;;;;;;;;;;;;;25.49;37.68;96109.79;614332;230;45695;-60
2023/04/13 09:23:30;;;;;;;;;;;;;;;25.50;41.32;96110.58;614436;231;63108;-60
2023/04/13 09:26:05;;;;;;;;;;;;;;;25.51;44.30;96101.38;616646;228;64890;-60
2023/04/13 09:28:32;;;;;;;;;;;;;;;25.51;42.69;96106.77;615552;229;64969;-60
2023/04/13 09:31:04;;;;;;;;;;;;;;;25.51;40.79;96104.89;617636;228;65087;-60
2023/04/13 09:33:36;;;;;;;;;;;;;;;25.51;41.52;96106.77;619591;225;64735;-59
2023/04/13 09:36:11;;;;;;;;;;;;;;;25.52;42.27;96095.69;617440;228;64972;-59
2023/04/13 09:38:38;;;;;;;;;;;;;;;25.54;43.32;96098.86;620026;227;65091;-59
2023/04/13 09:41:07;;;;;;;;;;;;;;;25.53;39.16;96091.09;615915;226;67189;-59
2023/04/13 09:43:36;;;;;;;;;;;;;;;25.54;40.85;96090.78;616441;229;67457;-59
2023/04/13 09:46:05;;;;;;;;;;;;;;;25.55;42.82;96088.88;613565;230;65092;-58
2023/04/13 09:48:33;;;;;;;;;;;;;;;25.52;42.89;96086.84;620596;227;67148;-58
2023/04/13 09:51:01;;;;;;;;;;;;;;;25.54;42.51;96082.72;615695;228;67039;-58
2023/04/13 09:53:30;;;;;;;;;;;;;;;25.55;40.94;96080.81;623289;227;62605;-60
2023/04/13 09:55:58;;;;;;;;;;;;;;;25.55;42.91;96086.97;619132;227;65958;-60
2023/04/13 09:58:26;;;;;;;;;;;;;;;25.54;41.80;96082.72;620620;227;64940;-58
2023/04/13 10:00:53;;;;;;;;;;;;;;;25.54;41.39;96074.64;617895;227;65209;-58
2023/04/13 10:03:22;;;;;;;;;;;;;;;25.55;43.66;96073.52;616019;228;66869;-58
2023/04/13 10:05:50;;;;;;;;;;;;;;;25.53;41.95;96067.66;617909;228;64772;-58
2023/04/13 10:08:18;;;;;;;;;;;;;;;25.54;43.17;96071.95;618620;228;63002;-58
2023/04/13 10:10:46;;;;;;;;;;;;;;;25.54;40.44;96071.95;615385;228;67326;-60
2023/04/13 10:13:17;;;;;;;;;;;;;;;25.55;42.28;96072.73;621364;228;66776;-60
2023/04/13 10:16:04;;;;;;;;;;;;;;;25.54;39.63;96090.00;618121;228;64996;-61
2023/04/13 10:18:42;;;;;;;;;;;;;;;25.56;39.51;96066.23;618917;228;67921;-60
2023/04/13 10:21:10;;;;;;;;;;;;;;;25.59;38.19;96076.34;619361;228;67051;-60
2023/04/13 10:23:38;;;;;;;;;;;;;;;25.61;40.39;96077.60;616218;228;62933;-58
2023/04/13 10:26:08;;;;;;;;;;;;;;;25.61;40.20;96077.60;613135;230;65121;-61
2023/04/13 10:28:42;;;;;;;;;;;;;;;25.59;38.44;96069.09;620136;228;67065;-60
2023/04/13 10:31:10;;;;;;;;;;;;;;;25.58;43.66;96067.48;618721;228;65060;-58
2023/04/13 10:33:48;;;;;;;;;;;;;;;25.57;40.56;96068.61;617223;228;65886;-59
2023/04/13 10:36:17;;;;;;;;;;;;;;;25.57;40.11;96067.83;615174;228;67759;-58
2023/04/13 10:38:45;;;;;;;;;;;;;;;25.56;34.53;96056.26;619876;228;65512;-60
2023/04/13 10:41:25;;;;;;;;;;;;;;;25.58;37.58;96058.64;618521;227;65639;-59
2023/04/13 10:44:03;;;;;;;;;;;;;;;25.59;35.21;96049.44;619301;228;65098;-59
2023/04/13 10:46:36;;;;;;;;;;;;;;;25.60;34.77;96051.04;618091;228;65722;-59
2023/04/13 10:49:01;;;;;;;;;;;;;;;25.60;34.49;96048.34;621762;227;67247;-59
2023/04/13 10:51:42;;;;;;;;;;;;;;;25.62;36.69;96046.13;620445;227;67933;-59
2023/04/13 10:54:10;;;;;;;;;;;;;;;25.62;38.62;96038.06;620560;227;63008;-59
2023/04/13 10:56:39;;;;;;;;;;;;;;;25.61;34.65;96031.86;622527;227;67276;-60
2023/04/13 10:59:06;;;;;;;;;;;;;;;25.63;37.66;96061.15;621202;227;67361;-61
2023/04/13 11:01:35;;;;;;;;;;;;;;;25.62;38.92;96033.46;622695;228;62986;-60
2023/04/13 11:04:03;;;;;;;;;;;;;;;25.62;34.69;96024.61;623063;227;67260;-61
2023/04/13 11:06:37;;;;;;;;;;;;;;;25.63;35.64;96032.34;622846;227;64916;-61
2023/04/13 11:09:05;;;;;;;;;;;;;;;25.63;38.22;96032.34;614614;224;65031;-60
2023/04/13 11:11:33;;;;;;;;;;;;;;;25.64;37.36;96035.81;620842;227;65054;-60
2023/04/13 11:14:00;;;;;;;;;;;;;;;25.64;37.44;96033.12;620819;227;66751;-60
2023/04/13 11:16:28;;;;;;;;;;;;;;;25.66;35.57;96028.20;622430;226;66549;-62
2023/04/13 11:19:05;;;;;;;;;;;;;;;25.66;40.68;96025.52;619775;227;66821;-61
2023/04/13 11:21:34;;;;;;;;;;;;;;;25.65;35.98;96029.33;619444;227;67221;-59
2023/04/13 11:24:01;;;;;;;;;;;;;;;25.66;40.79;96030.90;615838;229;65058;-59
2023/04/13 11:26:33;;;;;;;;;;;;;;;25.66;36.33;96014.75;614234;228;65247;-58
2023/04/13 11:29:02;;;;;;;;;;;;;;;25.66;37.57;96017.45;616412;229;71616;-59
2023/04/13 11:31:40;;;;;;;;;;;;;;;25.66;38.97;96017.45;618737;228;65038;-61
2023/04/13 11:34:13;;;;;;;;;;;;;;;25.66;38.38;96012.06;615899;228;66043;-59
2023/04/13 11:36:38;;;;;;;;;;;;;;;25.65;41.30;96003.21;620059;228;65000;-60
2023/04/13 11:39:09;;;;;;;;;;;;;;;25.64;38.59;96004.30;618300;228;65031;-59
2023/04/13 11:41:40;;;;;;;;;;;;;;;25.65;40.11;96005.91;619662;228;67297;-60
2023/04/13 11:44:09;;;;;;;;;;;;;;;25.64;40.51;95998.92;619777;227;65857;-60
2023/04/13 11:46:37;;;;;;;;;;;;;;;25.62;39.55;96001.17;618463;227;62912;-60
2023/04/13 11:49:05;;;;;;;;;;;;;;;25.61;39.66;95996.11;618166;228;64995;-60
2023/04/13 11:51:33;;;;;;;;;;;;;;;25.61;34.40;95998.80;618681;228;67080;-61
2023/04/13 11:54:01;;;;;;;;;;;;;;;25.64;39.90;95998.92;615238;230;65080;-60
2023/04/13 11:56:29;;;;;;;;;;;;;;;25.63;38.75;95997.36;620438;228;64977;-59
2023/04/13 11:58:57;;;;;;;;;;;;;;;25.65;37.34;95994.36;617727;226;67049;-59
2023/04/13 12:01:25;;;;;;;;;;;;;;;25.65;36.87;95991.66;615876;229;65107;-60
2023/04/13 12:03:53;;;;;;;;;;;;;;;25.66;39.41;95977.09;615074;228;64892;-60
2023/04/13 12:06:20;;;;;;;;;;;;;;;25.67;36.31;95992.11;619274;227;64695;-60
2023/04/13 12:08:48;;;;;;;;;;;;;;;25.67;37.62;95986.72;615479;228;62860;-61
2023/04/13 12:11:15;;;;;;;;;;;;;;;25.68;38.24;95985.63;619944;228;64901;-59
2023/04/13 12:13:44;;;;;;;;;;;;;;;25.68;39.11;95977.55;616289;228;65179;-60
2023/04/13 12:16:13;;;;;;;;;;;;;;;25.67;37.96;95981.34;615929;229;63654;-60
2023/04/13 12:18:44;;;;;;;;;;;;;;;25.67;35.50;95970.58;615700;229;67337;-60
2023/04/13 12:21:18;;;;;;;;;;;;;;;25.68;39.87;95972.95;618511;228;66924;-60
2023/04/13 12:23:53;;;;;;;;;;;;;;;25.68;38.31;95966.80;614547;227;65075;-59
2023/04/13 12:26:26;;;;;;;;;;;;;;;25.68;38.13;95974.86;614182;229;64894;-60
2023/04/13 12:28:52;;;;;;;;;;;;;;;25.66;37.43;95975.18;615550;227;64629;-60
2023/04/13 12:31:20;;;;;;;;;;;;;;;25.63;37.17;95967.77;617726;228;63550;-59
2023/04/13 12:33:47;;;;;;;;;;;;;;;25.62;39.55;95965.41;618520;227;64453;-58
2023/04/13 12:36:15;;;;;;;;;;;;;;;25.60;37.60;95964.95;619244;228;66719;-58
2023/04/13 12:38:43;;;;;;;;;;;;;;;25.58;38.70;95967.95;617571;228;62655;-58
2023/04/13 12:41:10;;;;;;;;;;;;;;;25.57;36.64;95971.77;616011;229;64867;-58
2023/04/13 12:43:38;;;;;;;;;;;;;;;25.58;37.03;95964.48;615997;229;66638;-58
2023/04/13 12:46:05;;;;;;;;;;;;;;;25.57;38.72;95973.67;615898;229;65132;-59
2023/04/13 12:48:33;;;;;;;;;;;;;;;25.54;37.30;95977.02;615992;229;64660;-59
2023/04/13 12:51:00;;;;;;;;;;;;;;;25.54;37.05;95968.95;615960;229;66467;-59
2023/04/13 12:53:28;;;;;;;;;;;;;;;25.52;35.58;95958.50;615382;229;65015;-59
2023/04/13 12:55:55;;;;;;;;;;;;;;;25.58;41.62;95956.41;615293;230;67100;-59
2023/04/13 12:58:23;;;;;;;;;;;;;;;25.58;37.64;95945.64;615940;229;66933;-59